• Join FlightAware (Why Join?)
  • Login
  • US Flag 
05:59AM EDT


 

Airport Tracker/Info


-or-


 

Live Flight TrackerFlight Track Log ✈ UAL5829 ✈ 16-Apr-2013 ✈ KICT - KORD

Flight Track Log - Related Links

Times and Time Zones

All times are in EDT time to prevent confusion due to time zone crossing. See the UAL5829 flight status page for this flight to view local times or setup timezone preferences in your user account.

Time Position Orientation Groundspeed Altitude Reporting Facility
EDT Latitude Longitude Course Direction KTS MPH feet Rate Location/Type
07:04AM 37.6667 -97.4158 39° Northeast 156 180 1,900  Level Kansas City Center
07:06AM 37.7031 -97.3783 39° Northeast 171 197 4,300 1,680 Climbing Kansas City Center
07:06AM 37.7092 -97.3656 59° Northeast 175 201 4,500 1,080 Climbing Kansas City Center
07:07AM 37.7489 -97.3036 51° Northeast 207 238 5,800 1,380 Climbing Kansas City Center
07:08AM 37.7958 -97.2272 52° Northeast 271 312 7,400 1,800 Climbing Kansas City Center
07:09AM 37.8483 -97.1425 52° Northeast 303 349 9,500 1,620 Climbing Kansas City Center
07:10AM 37.9156 -97.0353 52° Northeast 325 374 10,800 960 Climbing Kansas City Center
07:11AM 37.9800 -96.9297 52° Northeast 375 432 11,400 900 Climbing Kansas City Center
07:12AM 38.0497 -96.8175 52° Northeast 401 461 12,700 1,320 Climbing Kansas City Center
07:13AM 38.1183 -96.7053 52° Northeast 404 465 14,200 1,440 Climbing Kansas City Center
07:14AM 38.1869 -96.5936 52° Northeast 402 463 15,700 1,320 Climbing Kansas City Center
07:15AM 38.2550 -96.4806 53° Northeast 402 463 16,900 1,020 Climbing Kansas City Center
07:16AM 38.3192 -96.3747 52° Northeast 404 465 17,800 1,080 Climbing Kansas City Center
07:17AM 38.3978 -96.2442 52° Northeast 415 478 19,100 1,200 Climbing Kansas City Center
07:18AM 38.4667 -96.1300 52° Northeast 423 487 20,300 1,080 Climbing Kansas City Center
07:19AM 38.5342 -96.0131 54° Northeast 426 490 21,400 1,200 Climbing Kansas City Center
07:20AM 38.6183 -95.8747 52° Northeast 438 504 22,700 1,200 Climbing Kansas City Center
07:21AM 38.6897 -95.7572 52° Northeast 437 503 23,800 1,020 Climbing Kansas City Center
07:22AM 38.7600 -95.6364 53° Northeast 442 509 24,900 1,140 Climbing Kansas City Center
07:23AM 38.8433 -95.4972 52° Northeast 440 506 26,200 1,080 Climbing Kansas City Center
07:24AM 38.9142 -95.3772 53° Northeast 442 509 27,100 900 Climbing Kansas City Center
07:25AM 38.9844 -95.2569 53° Northeast 444 511 28,100 1,080 Climbing Kansas City Center
07:26AM 39.0658 -95.1164 53° Northeast 444 511 29,300 1,080 Climbing Kansas City Center
07:27AM 39.1347 -94.9958 54° Northeast 443 510 30,400 1,200 Climbing Kansas City Center
07:28AM 39.2156 -94.8575 53° Northeast 437 503 31,800 1,260 Climbing Kansas City Center
07:29AM 39.2847 -94.7367 53° Northeast 438 504 33,000 1,080 Climbing Kansas City Center
07:30AM 39.3411 -94.6042 61° Northeast 442 509 34,000 960 Climbing Kansas City Center
07:31AM 39.4042 -94.4475 62° Northeast 439 505 35,000 480 Climbing Kansas City Center
07:32AM 39.4603 -94.3100 62° Northeast 454 522 35,000  Level Kansas City Center
07:33AM 39.5186 -94.1647 62° Northeast 472 543 35,000  Level Kansas City Center
07:34AM 39.5900 -93.9897 62° Northeast 492 566 35,000  Level Kansas City Center
07:35AM 39.6500 -93.8389 63° Northeast 490 564 35,000  Level Kansas City Center
07:36AM 39.7133 -93.6747 63° Northeast 499 574 35,000  Level Kansas City Center
07:37AM 39.7739 -93.5150 64° Northeast 495 570 35,000  Level Kansas City Center
07:38AM 39.8378 -93.3608 62° Northeast 485 558 35,000  Level Kansas City Center
07:39AM 39.8983 -93.2036 63° Northeast 497 572 35,000  Level Kansas City Center
07:40AM 39.9608 -93.0492 62° Northeast 490 564 35,000  Level Kansas City Center
07:41AM 40.0194 -92.8917 64° Northeast 489 563 35,000  Level Kansas City Center
07:42AM 40.0925 -92.7008 63° Northeast 489 563 35,000  Level Kansas City Center
07:43AM 40.1497 -92.5483 64° Northeast 487 560 35,000  Level Kansas City Center
07:44AM 40.2081 -92.3950 63° Northeast 490 564 35,000  Level Kansas City Center
07:45AM 40.2644 -92.2331 65° Northeast 494 568 35,000  Level Kansas City Center
07:46AM 40.3217 -92.0739 65° Northeast 492 566 35,000  Level Kansas City Center
07:47AM 40.3792 -91.9125 65° Northeast 493 567 35,000 -300 Level Kansas City Center
07:48AM 40.4475 -91.7172 65° Northeast 494 568 34,400 -840 Descending Kansas City Center
07:49AM 40.5025 -91.5508 66° East 499 574 33,300 -1,080 Descending Kansas City Center
07:50AM 40.5264 -91.4839 65° Northeast 501 577 33,000 -240 Descending Chicago Center
07:51AM 40.5831 -91.3189 66° East 500 575 33,000  Level Chicago Center
07:52AM 40.6394 -91.1536 66° East 503 579 33,000  Level Chicago Center
07:53AM 40.6975 -90.9850 66° East 505 581 33,000  Level Chicago Center
07:54AM 40.7547 -90.8153 66° East 506 582 33,000  Level Chicago Center
07:55AM 40.8119 -90.6456 66° East 505 581 33,000  Level Chicago Center
07:56AM 40.8678 -90.4761 66° East 502 578 33,000  Level Chicago Center
07:57AM 40.9269 -90.3039 66° East 507 583 33,000 -1,080 Level Chicago Center
07:58AM 40.9922 -90.1036 67° East 508 585 30,900 -2,340 Descending Chicago Center
07:59AM 41.0525 -89.9222 66° East 508 585 28,200 -2,520 Descending Chicago Center
08:00AM 41.1097 -89.7450 67° East 516 594 25,800 -2,340 Descending Chicago Center
08:01AM 41.1689 -89.5689 66° East 518 596 23,500 -2,280 Descending Chicago Center
08:02AM 41.2358 -89.4047 61° Northeast 503 579 21,100 -2,280 Descending Chicago Center
08:03AM 41.2994 -89.2453 62° Northeast 491 565 18,900 -2,280 Descending Chicago Center
08:04AM 41.3647 -89.0817 62° Northeast 464 534 16,500 -2,340 Descending Chicago Center
08:05AM 41.4214 -88.9367 62° Northeast 444 511 14,100 -2,400 Descending Chicago Center
08:06AM 41.4769 -88.7972 62° Northeast 431 496 11,600 -1,620 Descending Chicago Center
08:07AM 41.5308 -88.6606 62° Northeast 418 481 10,900 -300 Descending Chicago Center
08:08AM 41.5831 -88.5286 62° Northeast 404 465 11,100  Climbing Chicago Center
08:09AM 41.6444 -88.4042 57° Northeast 400 460 11,000 -60 Descending Chicago Center
08:10AM 41.7269 -88.2642 52° Northeast 399 459 11,000 -120 Level Chicago Center
08:11AM 41.7897 -88.1556 52° Northeast 364 419 10,800 -960 Descending Chicago Center
08:12AM 41.8453 -88.0603 52° Northeast 326 375 9,100 -1,680 Descending Chicago Center
08:13AM 41.8833 -88.0000 50° Northeast 318 366 8,100 -1,320 Descending Chicago TRACON
08:14AM 41.8833 -87.9000 90° East 297 342 7,100 -540 Descending Chicago TRACON
08:15AM 41.8833 -87.7833 90° East 283 326 7,100 -120 Level Chicago TRACON
08:16AM 41.8833 -87.7000 90° East 218 251 6,900 -960 Descending Chicago TRACON
08:17AM 41.8833 -87.6167 90° East 205 236 5,300 -1,380 Descending Chicago TRACON
08:18AM 41.9333 -87.6000 14° North 183 211 4,200 -660 Descending Chicago TRACON
08:19AM 41.9500 -87.6500 294° West 171 197 4,100 -480 Descending Chicago TRACON
08:20AM 41.9667 -87.7167 289° West 174 200 3,300 -900 Descending Chicago TRACON
08:21AM 41.9667 -87.7833 270° West 179 206 2,300 -900 Descending Chicago TRACON
08:22AM 41.9667 -87.8333 270° West 134 154 1,500 -840 Descending Chicago TRACON
08:25AM 41.9667 -87.9000 291° West  Level FlightAware Approximate